Terminal Aerodrome Forecast
Issued by NWS

Home | Current Version | Previous Version | Text Only | Print | Product List | Glossary On
Versions: 1 2 3 4 5 6 7 8 9 10 11 12 13 14 15 16 17 18 19
000
FTUS43 KDTX 231411 AAA
TAFPTK
TAF AMD
KPTK 231411Z 2314/2412 26011KT P6SM SCT025 BKN045
      TEMPO 2314/2315 02012G20KT
     FM231900 29012KT P6SM BKN030
     FM240100 30006KT P6SM BKN120=

USA.gov is the U.S. government's official web portal to all federal, state and local government web resources and services.